createdAt,value
2023-05-19T00:02:16.063Z,96494.75
2023-05-19T00:04:45.364Z,96460.28
2023-05-19T00:07:13.690Z,96484.72
2023-05-19T00:09:40.874Z,96470.34
2023-05-19T00:12:08.350Z,96456.91
2023-05-19T00:14:36.261Z,96472.03
2023-05-19T00:17:03.411Z,96465.47
2023-05-19T00:19:32.567Z,96422.78
2023-05-19T00:21:59.556Z,96421.06
2023-05-19T00:24:26.438Z,96439.25
2023-05-19T00:26:56.035Z,96438.59
2023-05-19T00:29:22.997Z,96439.47
2023-05-19T00:31:50.000Z,96430.03
2023-05-19T00:34:16.874Z,96440.09
2023-05-19T00:36:46.611Z,96435.03
2023-05-19T00:39:14.280Z,96447.28
2023-05-19T00:41:41.749Z,96468.03
2023-05-19T00:44:08.660Z,96447.38
2023-05-19T00:46:35.844Z,96450.13
2023-05-19T00:49:02.784Z,96452.56
2023-05-19T00:51:32.644Z,96426.78
2023-05-19T00:54:02.311Z,96422.78
2023-05-19T00:56:29.227Z,96391.66
2023-05-19T00:58:59.557Z,96445.91
2023-05-19T01:01:27.338Z,96423.59
2023-05-19T01:03:57.016Z,96428.59
2023-05-19T01:06:27.965Z,96414.50
2023-05-19T01:08:57.618Z,96447.28
2023-05-19T01:11:24.579Z,96450.66
2023-05-19T01:13:53.936Z,96410.69
2023-05-19T01:16:33.063Z,96431.13
2023-05-19T01:19:25.675Z,96437.34
2023-05-19T01:22:13.464Z,96437.84
2023-05-19T01:24:47.023Z,96434.16
2023-05-19T01:27:45.768Z,96433.31
2023-05-19T01:30:37.179Z,96435.34
2023-05-19T01:33:14.411Z,96422.81
2023-05-19T01:35:44.146Z,96416.03
2023-05-19T01:38:13.412Z,96436.25
2023-05-19T01:40:42.175Z,96424.91
2023-05-19T01:43:12.725Z,96364.53
2023-05-19T01:45:45.097Z,96460.97
2023-05-19T01:48:16.088Z,96448.13
2023-05-19T01:50:43.289Z,96433.16
2023-05-19T01:53:11.161Z,96414.31
2023-05-19T01:55:46.495Z,96436.63
2023-05-19T01:58:50.013Z,96446.03
2023-05-19T02:01:20.536Z,96446.44
2023-05-19T02:04:25.201Z,96427.41
2023-05-19T02:07:10.092Z,96438.53
2023-05-19T02:09:51.501Z,96437.66
2023-05-19T02:12:32.561Z,96432.25
2023-05-19T02:15:15.824Z,96437.34
2023-05-19T02:17:52.057Z,96434.38
2023-05-19T02:20:24.579Z,96433.28
2023-05-19T02:22:51.483Z,96408.97
2023-05-19T02:25:18.651Z,96416.28
2023-05-19T02:27:46.091Z,96414.47
2023-05-19T02:30:13.061Z,96443.84
2023-05-19T02:32:40.234Z,96404.19
2023-05-19T02:35:10.046Z,96394.91
2023-05-19T02:37:37.652Z,96407.41
2023-05-19T02:40:07.283Z,96381.03
2023-05-19T02:42:34.140Z,96410.63
2023-05-19T02:45:01.082Z,96383.75
2023-05-19T02:47:28.058Z,96418.25
2023-05-19T02:49:54.949Z,96381.63
2023-05-19T02:52:24.595Z,96402.38
2023-05-19T02:54:51.638Z,96386.06
2023-05-19T02:57:18.515Z,96391.28
2023-05-19T02:59:50.212Z,96398.47
2023-05-19T03:02:17.127Z,96387.78
2023-05-19T03:04:46.320Z,96354.69
2023-05-19T03:07:15.808Z,96423.63
2023-05-19T03:09:42.726Z,96380.59
2023-05-19T03:12:09.756Z,96407.03
2023-05-19T03:14:39.304Z,96361.25
2023-05-19T03:17:08.339Z,96405.66
2023-05-19T03:19:35.432Z,96389.25
2023-05-19T03:22:02.655Z,96388.88
2023-05-19T03:24:32.946Z,96430.38
2023-05-19T03:27:01.165Z,96365.13
2023-05-19T03:29:32.830Z,96384.72
2023-05-19T03:32:00.117Z,96295.03
2023-05-19T03:34:27.254Z,96361.34
2023-05-19T03:36:57.131Z,96381.97
2023-05-19T03:39:24.130Z,96391.50
2023-05-19T03:41:53.377Z,96390.13
2023-05-19T03:44:20.187Z,96392.66
2023-05-19T03:46:47.220Z,96395.63
2023-05-19T03:49:37.100Z,96381.97
2023-05-19T03:52:22.518Z,96383.56
2023-05-19T03:55:08.042Z,96397.69
2023-05-19T03:57:34.917Z,96410.41
2023-05-19T04:00:01.798Z,96375.88
2023-05-19T04:02:39.576Z,96403.69
2023-05-19T04:05:08.733Z,96369.75
2023-05-19T04:07:39.746Z,96367.50
2023-05-19T04:10:07.307Z,96391.38
2023-05-19T04:12:34.238Z,96326.06
2023-05-19T04:15:01.098Z,96363.81
2023-05-19T04:17:28.162Z,96386.63
2023-05-19T04:19:56.056Z,96390.34
2023-05-19T04:22:23.094Z,96397.88
2023-05-19T04:24:55.283Z,96397.88
2023-05-19T04:27:24.853Z,96402.81
2023-05-19T04:29:51.859Z,96376.38
2023-05-19T04:32:21.011Z,96408.19
2023-05-19T04:34:47.883Z,96396.78
2023-05-19T04:37:24.391Z,96354.78
2023-05-19T04:39:52.425Z,96401.09
2023-05-19T04:42:20.805Z,96386.63
2023-05-19T04:44:51.979Z,96398.16
2023-05-19T04:47:21.747Z,96373.53
2023-05-19T04:49:55.844Z,96387.13
2023-05-19T04:52:23.005Z,96376.09
2023-05-19T04:54:50.851Z,96379.28
2023-05-19T04:57:17.757Z,96386.84
2023-05-19T04:59:46.486Z,96397.88
2023-05-19T05:02:13.671Z,96364.53
2023-05-19T05:04:42.826Z,96382.25
2023-05-19T05:07:10.905Z,96393.34
2023-05-19T05:09:39.932Z,96355.50
2023-05-19T05:12:08.310Z,96372.94
2023-05-19T05:14:40.964Z,96364.53
2023-05-19T05:17:13.890Z,96373.63
2023-05-19T05:19:43.450Z,96363.16
2023-05-19T05:22:10.862Z,96389.03
2023-05-19T05:24:40.127Z,96365.91
2023-05-19T05:27:11.068Z,96369.19
2023-05-19T05:29:38.033Z,96349.84
2023-05-19T05:32:08.387Z,96362.53
2023-05-19T05:34:37.833Z,96355.25
2023-05-19T05:37:05.300Z,96350.19
2023-05-19T05:39:32.687Z,96373.88
2023-05-19T05:42:00.246Z,96343.13
2023-05-19T05:44:29.448Z,96349.38
2023-05-19T05:46:57.310Z,96375.16
2023-05-19T05:49:27.841Z,96390.25
2023-05-19T05:52:05.858Z,96377.72
2023-05-19T05:54:38.491Z,96401.09
2023-05-19T05:57:08.529Z,96389.22
2023-05-19T05:59:35.434Z,96380.56
2023-05-19T06:02:02.678Z,96387.56
2023-05-19T06:04:29.924Z,96355.22
2023-05-19T06:07:01.336Z,96397.28
2023-05-19T06:09:33.039Z,96359.53
2023-05-19T06:12:00.518Z,96332.50
2023-05-19T06:14:31.132Z,96330.28
2023-05-19T06:17:10.024Z,96339.44
2023-05-19T06:19:36.863Z,96384.25
2023-05-19T06:22:17.017Z,96371.03
2023-05-19T06:24:44.779Z,96335.81
2023-05-19T06:27:14.624Z,96408.66
2023-05-19T06:29:42.073Z,96284.53
2023-05-19T06:32:16.073Z,96359.63
2023-05-19T06:34:43.602Z,96298.88
2023-05-19T06:37:10.591Z,96336.84
2023-05-19T06:39:38.584Z,96359.13
2023-05-19T06:42:05.631Z,96354.03
2023-05-19T06:44:55.038Z,96369.94
2023-05-19T06:47:24.145Z,96381.19
2023-05-19T06:49:55.613Z,96368.19
2023-05-19T06:52:26.291Z,96358.31
2023-05-19T06:54:58.395Z,96388.34
2023-05-19T06:57:27.792Z,96371.78
2023-05-19T06:59:56.909Z,96373.34
2023-05-19T07:02:29.358Z,96378.44
2023-05-19T07:05:03.681Z,96386.66
2023-05-19T07:07:30.624Z,96380.28
2023-05-19T07:10:03.468Z,96376.31
2023-05-19T07:12:34.938Z,96374.59
2023-05-19T07:15:09.919Z,96381.97
2023-05-19T07:17:39.238Z,96357.25
2023-05-19T07:20:11.766Z,96373.75
2023-05-19T07:22:41.025Z,96384.00
2023-05-19T07:25:10.884Z,96369.81
2023-05-19T07:27:46.193Z,96379.34
2023-05-19T07:30:15.279Z,96381.56
2023-05-19T07:32:46.816Z,96380.25
2023-05-19T07:35:18.495Z,96377.63
2023-05-19T07:37:47.617Z,96380.66
2023-05-19T07:40:16.823Z,96386.47
2023-05-19T07:42:48.275Z,96378.72
2023-05-19T07:45:24.951Z,96378.19
2023-05-19T07:47:56.888Z,96375.41
2023-05-19T07:50:26.801Z,96375.59
2023-05-19T07:52:58.381Z,96376.41
2023-05-19T07:55:25.323Z,96369.88
2023-05-19T07:57:57.495Z,96366.72
2023-05-19T08:00:26.862Z,96377.72
2023-05-19T08:02:58.744Z,96378.63
2023-05-19T08:05:30.023Z,96379.44
2023-05-19T08:08:02.016Z,96371.72
2023-05-19T08:10:33.507Z,96375.56
2023-05-19T08:13:05.440Z,96372.69
2023-05-19T08:15:44.012Z,96378.81
2023-05-19T08:18:13.576Z,96373.88
2023-05-19T08:20:43.088Z,96324.63
2023-05-19T08:23:12.632Z,96371.97
2023-05-19T08:25:39.632Z,96373.44
2023-05-19T08:28:06.675Z,96381.44
2023-05-19T08:30:35.759Z,96382.94
2023-05-19T08:33:10.094Z,96366.69
2023-05-19T08:35:39.279Z,96382.19
2023-05-19T08:38:08.575Z,96366.50
2023-05-19T08:40:38.019Z,96366.59
2023-05-19T08:43:12.176Z,96367.53
2023-05-19T08:45:43.833Z,96363.72
2023-05-19T08:48:10.794Z,96370.16
2023-05-19T08:50:47.560Z,96372.41
2023-05-19T08:53:34.047Z,96377.38
2023-05-19T08:56:26.891Z,96373.03
2023-05-19T08:59:00.510Z,96360.00
2023-05-19T09:01:29.166Z,96368.69
2023-05-19T09:04:03.751Z,96370.84
2023-05-19T09:06:33.165Z,96361.97
2023-05-19T09:09:07.211Z,96375.00
2023-05-19T09:11:37.899Z,96374.16
2023-05-19T09:14:05.884Z,96369.09
2023-05-19T09:16:34.156Z,96370.56
2023-05-19T09:19:07.505Z,96366.16
2023-05-19T09:21:40.423Z,96366.06
2023-05-19T09:24:10.373Z,96369.72
2023-05-19T09:26:41.156Z,96371.97
2023-05-19T09:29:16.666Z,96372.59
2023-05-19T09:31:51.784Z,96368.25
2023-05-19T09:34:22.446Z,96360.78
2023-05-19T09:36:54.362Z,96351.34
2023-05-19T09:39:23.211Z,96352.63
2023-05-19T09:41:56.334Z,96355.50
2023-05-19T09:44:32.925Z,96359.84
2023-05-19T09:47:07.259Z,96363.53
2023-05-19T09:49:36.317Z,96355.66
2023-05-19T09:52:06.044Z,96352.09
2023-05-19T09:54:34.371Z,96354.47
2023-05-19T09:57:07.739Z,96352.34
2023-05-19T09:59:41.135Z,96348.66
2023-05-19T10:02:21.533Z,96317.00
2023-05-19T10:04:55.370Z,96347.91
2023-05-19T10:07:27.872Z,96351.13
2023-05-19T10:09:58.669Z,96347.50
2023-05-19T10:12:28.787Z,96337.09
2023-05-19T10:15:00.694Z,96346.13
2023-05-19T10:17:28.673Z,96340.31
2023-05-19T10:19:55.546Z,96341.78
2023-05-19T10:22:25.060Z,96345.88
2023-05-19T10:24:51.916Z,96348.44
2023-05-19T10:27:19.395Z,96340.31
2023-05-19T10:29:54.334Z,96354.16
2023-05-19T10:32:26.255Z,96355.63
2023-05-19T10:35:28.014Z,96357.13
2023-05-19T10:38:06.426Z,96353.63
2023-05-19T10:40:46.648Z,96351.47
2023-05-19T10:43:26.254Z,96349.28
2023-05-19T10:46:00.482Z,96347.81
2023-05-19T10:48:41.084Z,96347.06
2023-05-19T10:51:13.176Z,96346.41
2023-05-19T10:53:50.289Z,96351.47
2023-05-19T10:56:33.101Z,96341.56
2023-05-19T10:59:04.739Z,96341.66
2023-05-19T11:01:41.896Z,96342.41
2023-05-19T11:04:16.007Z,96332.50
2023-05-19T11:06:55.972Z,96353.38
2023-05-19T11:09:39.741Z,96338.97
2023-05-19T11:12:12.306Z,96338.41
2023-05-19T11:14:41.354Z,96331.28
2023-05-19T11:17:15.874Z,96338.50
2023-05-19T11:19:56.550Z,96346.44
2023-05-19T11:22:27.805Z,96337.75
2023-05-19T11:24:57.761Z,96339.97
2023-05-19T11:27:31.633Z,96342.00
2023-05-19T11:30:02.040Z,96323.16
2023-05-19T11:32:30.890Z,96333.50
2023-05-19T11:35:05.368Z,96332.09
2023-05-19T11:37:35.358Z,96334.78
2023-05-19T11:40:11.103Z,96338.66
2023-05-19T11:42:41.035Z,96341.53
2023-05-19T11:45:10.803Z,96321.84
2023-05-19T11:47:51.990Z,96349.38
2023-05-19T11:50:29.307Z,96347.25
2023-05-19T11:53:03.474Z,96332.59
2023-05-19T11:55:32.863Z,96349.47
2023-05-19T11:58:06.885Z,96347.25
2023-05-19T12:00:43.343Z,96342.34
2023-05-19T12:03:13.225Z,96337.03
2023-05-19T12:05:51.179Z,96341.44
2023-05-19T12:08:21.783Z,96348.56
2023-05-19T12:10:52.509Z,96359.44
2023-05-19T12:13:24.834Z,96343.09
2023-05-19T12:15:56.379Z,96338.81
2023-05-19T12:18:25.722Z,96337.34
2023-05-19T12:20:57.149Z,96329.97
2023-05-19T12:23:32.438Z,96341.03
2023-05-19T12:26:01.893Z,96339.56
2023-05-19T12:28:31.535Z,96343.81
2023-05-19T12:31:02.945Z,96348.66
2023-05-19T12:33:36.032Z,96338.06
2023-05-19T12:36:08.842Z,96330.63
2023-05-19T12:38:39.785Z,96341.03
2023-05-19T12:41:07.261Z,96331.03
2023-05-19T12:43:39.650Z,96327.44
2023-05-19T12:46:16.817Z,96335.28
2023-05-19T12:48:47.028Z,96320.88
2023-05-19T12:51:22.830Z,96326.06
2023-05-19T12:53:52.262Z,96320.97
2023-05-19T12:56:21.492Z,96314.03
2023-05-19T12:58:54.788Z,96316.72
2023-05-19T13:01:24.393Z,96325.66
2023-05-19T13:03:55.990Z,96315.84
2023-05-19T13:06:23.056Z,96317.38
2023-05-19T13:08:54.696Z,96311.09
2023-05-19T13:11:24.510Z,96303.41
2023-05-19T13:13:56.113Z,96306.53
2023-05-19T13:16:25.269Z,96301.78
2023-05-19T13:18:52.940Z,96308.47
2023-05-19T13:21:22.350Z,96297.91
2023-05-19T13:23:51.507Z,96295.91
2023-05-19T13:26:18.307Z,96286.00
2023-05-19T13:28:48.076Z,96288.53
2023-05-19T13:31:21.485Z,96301.06
2023-05-19T13:33:48.434Z,96273.25
2023-05-19T13:36:19.646Z,96274.38
2023-05-19T13:38:53.966Z,96274.59
2023-05-19T13:41:27.266Z,96272.09
2023-05-19T13:43:56.351Z,96265.09
2023-05-19T13:46:40.889Z,96267.53
2023-05-19T13:49:13.754Z,96262.81
2023-05-19T13:51:44.031Z,96266.63
2023-05-19T13:54:11.613Z,96277.53
2023-05-19T13:56:43.393Z,96259.16
2023-05-19T13:59:16.076Z,96267.31
2023-05-19T14:01:45.676Z,96255.28
2023-05-19T14:04:12.677Z,96253.38
2023-05-19T14:06:44.276Z,96252.81
2023-05-19T14:09:11.349Z,96231.72
2023-05-19T14:11:38.734Z,96232.13
2023-05-19T14:14:09.323Z,96235.13
2023-05-19T14:16:39.778Z,96243.38
2023-05-19T14:19:11.491Z,96247.91
2023-05-19T14:21:43.155Z,96238.53
2023-05-19T14:24:12.964Z,96243.00
2023-05-19T14:26:44.194Z,96232.19
2023-05-19T14:29:20.829Z,96233.72
2023-05-19T14:31:52.701Z,96236.59
2023-05-19T14:34:21.976Z,96237.31
2023-05-19T14:36:53.702Z,96240.25
2023-05-19T14:39:30.106Z,96234.50
2023-05-19T14:42:00.232Z,96238.00
2023-05-19T14:44:33.271Z,96241.75
2023-05-19T14:47:01.834Z,96235.25
2023-05-19T14:49:30.916Z,96233.84
2023-05-19T14:52:02.266Z,96222.88
2023-05-19T14:54:29.187Z,96241.13
2023-05-19T14:56:56.106Z,96242.63
2023-05-19T14:59:27.232Z,96232.59
2023-05-19T15:01:56.358Z,96233.97
2023-05-19T15:04:23.392Z,96234.81
2023-05-19T15:07:09.839Z,96235.59
2023-05-19T15:09:37.866Z,96231.31
2023-05-19T15:12:07.062Z,96224.16
2023-05-19T15:14:36.321Z,96230.66
2023-05-19T15:17:05.684Z,96219.16
2023-05-19T15:19:35.078Z,96228.50
2023-05-19T15:22:09.465Z,96224.28
2023-05-19T15:24:38.856Z,96221.47
2023-05-19T15:27:12.419Z,96217.94
2023-05-19T15:29:39.345Z,96213.66
2023-05-19T15:32:11.278Z,96213.72
2023-05-19T15:34:40.577Z,96199.78
2023-05-19T15:37:07.457Z,96205.13
2023-05-19T15:39:36.781Z,96200.91
2023-05-19T15:42:10.719Z,96202.44
2023-05-19T15:44:42.364Z,96209.72
2023-05-19T15:47:09.225Z,96202.56
2023-05-19T15:49:40.893Z,96200.50
2023-05-19T15:52:10.070Z,96195.41
2023-05-19T15:54:39.100Z,96196.28
2023-05-19T15:57:08.440Z,96175.09
2023-05-19T15:59:39.953Z,96189.19
2023-05-19T16:02:11.584Z,96184.19
2023-05-19T16:04:40.934Z,96185.66
2023-05-19T16:07:10.206Z,96174.16
2023-05-19T16:09:37.046Z,96178.56
2023-05-19T16:12:06.220Z,96176.44
2023-05-19T16:14:36.709Z,96175.84
2023-05-19T16:17:05.078Z,96174.34
2023-05-19T16:19:34.530Z,96161.25
2023-05-19T16:22:04.037Z,96183.31
2023-05-19T16:24:33.860Z,96163.94
2023-05-19T16:27:03.415Z,96163.28
2023-05-19T16:29:30.280Z,96163.47
2023-05-19T16:32:02.452Z,96154.13
2023-05-19T16:34:33.877Z,96144.66
2023-05-19T16:37:03.127Z,96154.19
2023-05-19T16:39:36.207Z,96156.47
2023-05-19T16:42:08.952Z,96137.44
2023-05-19T16:44:40.481Z,96154.38
2023-05-19T16:47:09.797Z,96151.53
2023-05-19T16:49:40.629Z,96163.81
2023-05-19T16:52:10.711Z,96157.38
2023-05-19T16:54:44.659Z,96144.31
2023-05-19T16:57:19.353Z,96142.28
2023-05-19T16:59:46.236Z,96143.03
2023-05-19T17:02:15.402Z,96138.00
2023-05-19T17:04:42.203Z,96142.34
2023-05-19T17:07:09.192Z,96132.31
2023-05-19T17:09:38.218Z,96123.50
2023-05-19T17:12:10.210Z,96124.41
2023-05-19T17:14:43.686Z,96122.94
2023-05-19T17:17:10.746Z,96130.16
2023-05-19T17:19:44.520Z,96119.22
2023-05-19T17:22:13.469Z,96127.34
2023-05-19T17:24:42.810Z,96128.00
2023-05-19T17:27:09.606Z,96134.50
2023-05-19T17:29:39.006Z,96126.59
2023-05-19T17:32:08.111Z,96135.28
2023-05-19T17:34:37.141Z,96114.97
2023-05-19T17:37:08.515Z,96127.41
2023-05-19T17:39:36.025Z,96133.09
2023-05-19T17:42:02.869Z,96139.63
2023-05-19T17:44:36.586Z,96140.38
2023-05-19T17:47:08.374Z,96124.53
2023-05-19T17:49:40.459Z,96117.97
2023-05-19T17:52:10.161Z,96120.88
2023-05-19T17:54:41.773Z,96131.00
2023-05-19T17:57:14.995Z,96128.81
2023-05-19T17:59:42.040Z,96125.94
2023-05-19T18:02:10.034Z,96117.25
2023-05-19T18:04:41.865Z,96121.59
2023-05-19T18:07:14.050Z,96119.38
2023-05-19T18:09:46.712Z,96108.44
2023-05-19T18:12:19.177Z,96114.19
2023-05-19T18:14:46.066Z,96127.41
2023-05-19T18:17:17.670Z,96127.41
2023-05-19T18:19:49.628Z,96138.16
2023-05-19T18:22:18.660Z,96133.75
2023-05-19T18:24:45.637Z,96126.53
2023-05-19T18:27:14.809Z,96128.75
2023-05-19T18:29:44.899Z,96124.41
2023-05-19T18:32:17.965Z,96120.00
2023-05-19T18:34:49.598Z,96127.28
2023-05-19T18:37:21.514Z,96120.06
2023-05-19T18:39:50.982Z,96121.53
2023-05-19T18:42:22.233Z,96106.16
2023-05-19T18:44:53.915Z,96111.44
2023-05-19T18:47:23.712Z,96116.38
2023-05-19T18:49:53.914Z,96111.38
2023-05-19T18:52:23.339Z,96116.38
2023-05-19T18:54:52.545Z,96125.72
2023-05-19T18:57:24.278Z,96129.31
2023-05-19T18:59:53.844Z,96128.50
2023-05-19T19:02:27.753Z,96127.03
2023-05-19T19:04:56.815Z,96124.84
2023-05-19T19:07:24.621Z,96132.69
2023-05-19T19:09:54.398Z,96126.31
2023-05-19T19:12:21.337Z,96126.31
2023-05-19T19:14:50.923Z,96121.97
2023-05-19T19:17:22.841Z,96125.53
2023-05-19T19:19:49.790Z,96132.03
2023-05-19T19:22:19.030Z,96129.88
2023-05-19T19:24:45.976Z,96129.88
2023-05-19T19:27:17.921Z,96125.34
2023-05-19T19:29:47.357Z,96136.97
2023-05-19T19:32:17.244Z,96136.97
2023-05-19T19:34:48.506Z,96145.63
2023-05-19T19:37:15.429Z,96139.81
2023-05-19T19:39:42.325Z,96138.34
2023-05-19T19:42:09.189Z,96144.09
2023-05-19T19:44:36.157Z,96154.03
2023-05-19T19:47:06.789Z,96127.34
2023-05-19T19:49:34.139Z,96117.69
2023-05-19T19:52:05.944Z,96117.91
2023-05-19T19:54:32.941Z,96063.56
2023-05-19T19:56:59.854Z,96170.00
2023-05-19T19:59:26.998Z,96080.28
2023-05-19T20:01:56.189Z,96093.88
2023-05-19T20:04:25.360Z,96133.72
2023-05-19T20:06:52.467Z,96116.72
2023-05-19T20:09:19.329Z,96127.13
2023-05-19T20:11:46.485Z,96119.84
2023-05-19T20:14:13.456Z,96126.25
2023-05-19T20:16:41.208Z,96103.59
2023-05-19T20:19:09.255Z,96115.31
2023-05-19T20:21:36.353Z,96121.78
2023-05-19T20:24:11.196Z,96121.72
2023-05-19T20:26:42.812Z,96117.13
2023-05-19T20:29:11.957Z,96088.09
2023-05-19T20:31:41.350Z,96076.09
2023-05-19T20:34:10.859Z,96104.88
2023-05-19T20:36:40.030Z,96106.34
2023-05-19T20:39:07.287Z,96110.56
2023-05-19T20:41:34.224Z,96080.06
2023-05-19T20:44:01.103Z,96101.06
2023-05-19T20:46:28.103Z,96105.63
2023-05-19T20:48:55.042Z,96098.19
2023-05-19T20:51:27.472Z,96127.91
2023-05-19T20:53:54.292Z,96098.25
2023-05-19T20:56:27.606Z,96094.97
2023-05-19T20:58:54.526Z,96119.91
2023-05-19T21:01:26.810Z,96097.03
2023-05-19T21:03:53.744Z,96124.19
2023-05-19T21:06:20.787Z,96086.81
2023-05-19T21:08:47.647Z,96090.63
2023-05-19T21:11:14.551Z,96102.13
2023-05-19T21:13:41.395Z,96082.53
2023-05-19T21:16:08.400Z,96094.56
2023-05-19T21:18:37.693Z,96072.84
2023-05-19T21:21:04.754Z,96094.94
2023-05-19T21:23:31.636Z,96084.81
2023-05-19T21:26:00.875Z,96105.81
2023-05-19T21:28:27.740Z,96106.44
2023-05-19T21:30:54.658Z,96094.69
2023-05-19T21:33:23.751Z,96094.56
2023-05-19T21:35:50.849Z,96104.00
2023-05-19T21:38:23.882Z,96103.31
2023-05-19T21:40:53.661Z,96090.09
2023-05-19T21:43:22.774Z,96109.31
2023-05-19T21:45:51.873Z,96101.06
2023-05-19T21:48:18.828Z,96111.88
2023-05-19T21:50:53.750Z,96107.06
2023-05-19T21:53:21.063Z,96088.63
2023-05-19T21:55:50.221Z,96092.16
2023-05-19T21:58:17.336Z,96094.31
2023-05-19T22:00:54.725Z,96103.88
2023-05-19T22:03:22.123Z,96110.22
2023-05-19T22:05:52.680Z,96106.00
2023-05-19T22:08:22.728Z,96098.59
2023-05-19T22:10:52.293Z,96057.31
2023-05-19T22:13:20.520Z,96055.78
2023-05-19T22:15:49.887Z,96098.06
2023-05-19T22:18:18.961Z,96078.66
2023-05-19T22:20:45.839Z,96085.34
2023-05-19T22:23:12.773Z,96099.78
2023-05-19T22:25:39.749Z,96070.78
2023-05-19T22:28:09.302Z,96053.22
2023-05-19T22:30:41.058Z,96085.28
2023-05-19T22:33:11.551Z,96072.19
2023-05-19T22:35:43.917Z,96001.81
2023-05-19T22:38:11.956Z,96064.16
2023-05-19T22:40:41.301Z,96069.25
2023-05-19T22:43:08.233Z,96078.41
2023-05-19T22:45:36.760Z,96079.69
2023-05-19T22:48:04.143Z,96063.72
2023-05-19T22:50:33.681Z,96080.75
2023-05-19T22:53:02.796Z,96053.59
2023-05-19T22:55:32.422Z,96082.75
2023-05-19T22:57:59.687Z,96084.63
2023-05-19T23:00:28.137Z,96080.97
2023-05-19T23:02:58.541Z,96082.56
2023-05-19T23:05:25.900Z,96077.91
2023-05-19T23:07:52.998Z,96035.28
2023-05-19T23:10:19.941Z,96055.00
2023-05-19T23:12:46.888Z,96074.84
2023-05-19T23:15:15.996Z,96043.78
2023-05-19T23:17:42.934Z,96084.75
2023-05-19T23:20:12.891Z,96071.03
2023-05-19T23:22:39.796Z,96065.94
2023-05-19T23:25:08.054Z,96070.13
2023-05-19T23:27:41.138Z,96067.56
2023-05-19T23:30:08.703Z,96042.38
2023-05-19T23:32:35.843Z,96020.03
2023-05-19T23:35:13.230Z,96047.78
2023-05-19T23:37:42.419Z,96039.91
2023-05-19T23:40:11.030Z,96029.81
2023-05-19T23:42:37.917Z,96051.38
2023-05-19T23:45:05.699Z,96050.06
2023-05-19T23:47:34.919Z,96046.91
2023-05-19T23:50:04.305Z,96043.06
2023-05-19T23:52:33.429Z,96053.91
2023-05-19T23:55:05.032Z,96010.34
2023-05-19T23:57:31.930Z,96021.44
2023-05-19T23:59:59.067Z,96030.50
